sensor_id;sensor_type;location;lat;lon;timestamp;P1;durP1;ratioP1;P2;durP2;ratioP2
25553;SDS011;13446;50.926;5.332;2024-02-14T00:02:11;4.15;;;2.08;;
25553;SDS011;13446;50.926;5.332;2024-02-14T00:04:37;2.45;;;1.80;;
25553;SDS011;13446;50.926;5.332;2024-02-14T00:07:04;2.95;;;1.73;;
25553;SDS011;13446;50.926;5.332;2024-02-14T00:09:30;6.03;;;2.05;;
25553;SDS011;13446;50.926;5.332;2024-02-14T00:11:56;2.05;;;1.60;;
25553;SDS011;13446;50.926;5.332;2024-02-14T00:14:22;5.32;;;2.38;;
25553;SDS011;13446;50.926;5.332;2024-02-14T00:16:47;6.60;;;2.00;;
25553;SDS011;13446;50.926;5.332;2024-02-14T00:19:13;3.03;;;2.00;;
25553;SDS011;13446;50.926;5.332;2024-02-14T00:21:39;2.33;;;1.77;;
25553;SDS011;13446;50.926;5.332;2024-02-14T00:24:05;4.78;;;2.22;;
25553;SDS011;13446;50.926;5.332;2024-02-14T00:26:32;4.03;;;2.00;;
25553;SDS011;13446;50.926;5.332;2024-02-14T00:28:59;2.67;;;1.83;;
25553;SDS011;13446;50.926;5.332;2024-02-14T00:31:31;4.70;;;2.50;;
25553;SDS011;13446;50.926;5.332;2024-02-14T00:33:57;3.38;;;2.30;;
25553;SDS011;13446;50.926;5.332;2024-02-14T00:36:23;4.47;;;2.10;;
25553;SDS011;13446;50.926;5.332;2024-02-14T00:38:48;7.00;;;2.20;;
25553;SDS011;13446;50.926;5.332;2024-02-14T00:41:14;3.92;;;1.88;;
25553;SDS011;13446;50.926;5.332;2024-02-14T00:43:40;8.50;;;2.42;;
25553;SDS011;13446;50.926;5.332;2024-02-14T00:46:05;6.50;;;2.28;;
25553;SDS011;13446;50.926;5.332;2024-02-14T00:48:34;5.18;;;1.90;;
25553;SDS011;13446;50.926;5.332;2024-02-14T00:51:00;7.55;;;2.00;;
25553;SDS011;13446;50.926;5.332;2024-02-14T00:53:26;4.57;;;2.58;;
25553;SDS011;13446;50.926;5.332;2024-02-14T00:55:51;3.13;;;2.42;;
25553;SDS011;13446;50.926;5.332;2024-02-14T00:58:17;4.47;;;2.00;;
25553;SDS011;13446;50.926;5.332;2024-02-14T01:00:43;3.63;;;2.00;;
25553;SDS011;13446;50.926;5.332;2024-02-14T01:03:09;5.38;;;1.98;;
25553;SDS011;13446;50.926;5.332;2024-02-14T01:05:38;9.45;;;2.58;;
25553;SDS011;13446;50.926;5.332;2024-02-14T01:08:06;3.53;;;2.17;;
25553;SDS011;13446;50.926;5.332;2024-02-14T01:10:32;4.03;;;2.08;;
25553;SDS011;13446;50.926;5.332;2024-02-14T01:12:59;3.00;;;2.10;;
25553;SDS011;13446;50.926;5.332;2024-02-14T01:15:25;3.42;;;2.00;;
25553;SDS011;13446;50.926;5.332;2024-02-14T01:17:51;2.92;;;1.98;;
25553;SDS011;13446;50.926;5.332;2024-02-14T01:20:16;5.35;;;2.30;;
25553;SDS011;13446;50.926;5.332;2024-02-14T01:22:43;4.97;;;2.08;;
25553;SDS011;13446;50.926;5.332;2024-02-14T01:25:17;4.35;;;2.00;;
25553;SDS011;13446;50.926;5.332;2024-02-14T01:27:42;4.68;;;2.40;;
25553;SDS011;13446;50.926;5.332;2024-02-14T01:30:09;4.85;;;2.20;;
25553;SDS011;13446;50.926;5.332;2024-02-14T01:32:35;5.78;;;2.30;;
25553;SDS011;13446;50.926;5.332;2024-02-14T01:35:07;3.22;;;2.13;;
25553;SDS011;13446;50.926;5.332;2024-02-14T01:37:34;3.05;;;2.30;;
25553;SDS011;13446;50.926;5.332;2024-02-14T01:40:00;3.50;;;2.03;;
25553;SDS011;13446;50.926;5.332;2024-02-14T01:42:26;2.42;;;2.10;;
25553;SDS011;13446;50.926;5.332;2024-02-14T01:44:56;9.25;;;2.63;;
25553;SDS011;13446;50.926;5.332;2024-02-14T01:47:22;3.08;;;2.22;;
25553;SDS011;13446;50.926;5.332;2024-02-14T01:49:47;5.07;;;2.17;;
25553;SDS011;13446;50.926;5.332;2024-02-14T01:52:24;3.92;;;2.13;;
25553;SDS011;13446;50.926;5.332;2024-02-14T01:54:50;3.42;;;2.42;;
25553;SDS011;13446;50.926;5.332;2024-02-14T01:57:16;5.43;;;2.70;;
25553;SDS011;13446;50.926;5.332;2024-02-14T01:59:42;2.72;;;2.45;;
25553;SDS011;13446;50.926;5.332;2024-02-14T02:02:08;6.20;;;2.95;;
25553;SDS011;13446;50.926;5.332;2024-02-14T02:04:34;4.00;;;2.60;;
25553;SDS011;13446;50.926;5.332;2024-02-14T02:07:00;3.25;;;2.33;;
25553;SDS011;13446;50.926;5.332;2024-02-14T02:09:35;4.47;;;2.85;;
25553;SDS011;13446;50.926;5.332;2024-02-14T02:12:01;6.38;;;2.88;;
25553;SDS011;13446;50.926;5.332;2024-02-14T02:14:26;3.97;;;2.38;;
25553;SDS011;13446;50.926;5.332;2024-02-14T02:16:53;3.95;;;2.63;;
25553;SDS011;13446;50.926;5.332;2024-02-14T02:19:19;9.95;;;3.05;;
25553;SDS011;13446;50.926;5.332;2024-02-14T02:21:44;7.35;;;3.10;;
25553;SDS011;13446;50.926;5.332;2024-02-14T02:24:11;4.60;;;2.95;;
25553;SDS011;13446;50.926;5.332;2024-02-14T02:26:37;5.05;;;3.35;;
25553;SDS011;13446;50.926;5.332;2024-02-14T02:29:03;6.55;;;3.28;;
25553;SDS011;13446;50.926;5.332;2024-02-14T02:31:30;7.75;;;3.15;;
25553;SDS011;13446;50.926;5.332;2024-02-14T02:33:56;8.93;;;3.20;;
25553;SDS011;13446;50.926;5.332;2024-02-14T02:36:22;4.47;;;3.40;;
25553;SDS011;13446;50.926;5.332;2024-02-14T02:38:49;6.78;;;3.50;;
25553;SDS011;13446;50.926;5.332;2024-02-14T02:41:15;9.07;;;3.05;;
25553;SDS011;13446;50.926;5.332;2024-02-14T02:43:41;5.18;;;3.03;;
25553;SDS011;13446;50.926;5.332;2024-02-14T02:46:08;6.22;;;3.33;;
25553;SDS011;13446;50.926;5.332;2024-02-14T02:48:35;6.88;;;3.30;;
25553;SDS011;13446;50.926;5.332;2024-02-14T02:51:01;9.32;;;3.50;;
25553;SDS011;13446;50.926;5.332;2024-02-14T02:53:28;6.38;;;3.45;;
25553;SDS011;13446;50.926;5.332;2024-02-14T02:55:54;5.90;;;3.53;;
25553;SDS011;13446;50.926;5.332;2024-02-14T02:58:22;8.32;;;3.78;;
25553;SDS011;13446;50.926;5.332;2024-02-14T03:00:48;8.48;;;3.78;;
25553;SDS011;13446;50.926;5.332;2024-02-14T03:03:18;5.13;;;3.22;;
25553;SDS011;13446;50.926;5.332;2024-02-14T03:05:43;6.53;;;3.65;;
25553;SDS011;13446;50.926;5.332;2024-02-14T03:08:10;9.18;;;3.35;;
25553;SDS011;13446;50.926;5.332;2024-02-14T03:10:40;7.32;;;3.75;;
25553;SDS011;13446;50.926;5.332;2024-02-14T03:13:06;8.43;;;3.60;;
25553;SDS011;13446;50.926;5.332;2024-02-14T03:15:45;8.27;;;3.55;;
25553;SDS011;13446;50.926;5.332;2024-02-14T03:18:14;9.13;;;3.53;;
25553;SDS011;13446;50.926;5.332;2024-02-14T03:20:40;6.35;;;3.97;;
25553;SDS011;13446;50.926;5.332;2024-02-14T03:23:06;5.35;;;3.92;;
25553;SDS011;13446;50.926;5.332;2024-02-14T03:25:31;6.45;;;3.30;;
25553;SDS011;13446;50.926;5.332;2024-02-14T03:27:57;7.88;;;3.67;;
25553;SDS011;13446;50.926;5.332;2024-02-14T03:30:23;7.68;;;3.47;;
25553;SDS011;13446;50.926;5.332;2024-02-14T03:32:50;7.57;;;4.03;;
25553;SDS011;13446;50.926;5.332;2024-02-14T03:35:16;5.75;;;3.83;;
25553;SDS011;13446;50.926;5.332;2024-02-14T03:37:43;4.82;;;3.80;;
25553;SDS011;13446;50.926;5.332;2024-02-14T03:40:12;5.95;;;3.47;;
25553;SDS011;13446;50.926;5.332;2024-02-14T03:42:38;6.80;;;3.58;;
25553;SDS011;13446;50.926;5.332;2024-02-14T03:45:05;8.02;;;3.60;;
25553;SDS011;13446;50.926;5.332;2024-02-14T03:47:37;7.32;;;3.55;;
25553;SDS011;13446;50.926;5.332;2024-02-14T03:50:04;8.00;;;3.60;;
25553;SDS011;13446;50.926;5.332;2024-02-14T03:52:32;5.82;;;3.75;;
25553;SDS011;13446;50.926;5.332;2024-02-14T03:54:58;8.15;;;3.85;;
25553;SDS011;13446;50.926;5.332;2024-02-14T03:57:25;8.63;;;3.78;;
25553;SDS011;13446;50.926;5.332;2024-02-14T03:59:53;5.97;;;3.97;;
25553;SDS011;13446;50.926;5.332;2024-02-14T04:02:24;6.70;;;3.47;;
25553;SDS011;13446;50.926;5.332;2024-02-14T04:04:53;7.18;;;4.07;;
25553;SDS011;13446;50.926;5.332;2024-02-14T04:07:20;7.75;;;4.10;;
25553;SDS011;13446;50.926;5.332;2024-02-14T04:09:47;8.90;;;4.70;;
25553;SDS011;13446;50.926;5.332;2024-02-14T04:12:15;9.40;;;4.00;;
25553;SDS011;13446;50.926;5.332;2024-02-14T04:14:41;10.98;;;4.85;;
25553;SDS011;13446;50.926;5.332;2024-02-14T04:17:07;6.57;;;4.70;;
25553;SDS011;13446;50.926;5.332;2024-02-14T04:19:33;6.07;;;4.68;;
25553;SDS011;13446;50.926;5.332;2024-02-14T04:22:04;9.48;;;4.60;;
25553;SDS011;13446;50.926;5.332;2024-02-14T04:24:32;7.38;;;4.60;;
25553;SDS011;13446;50.926;5.332;2024-02-14T04:26:58;7.30;;;4.60;;
25553;SDS011;13446;50.926;5.332;2024-02-14T04:29:26;9.07;;;4.50;;
25553;SDS011;13446;50.926;5.332;2024-02-14T04:31:56;9.07;;;5.30;;
25553;SDS011;13446;50.926;5.332;2024-02-14T04:34:23;9.15;;;4.50;;
25553;SDS011;13446;50.926;5.332;2024-02-14T04:36:52;8.48;;;4.70;;
25553;SDS011;13446;50.926;5.332;2024-02-14T04:39:19;7.57;;;4.95;;
25553;SDS011;13446;50.926;5.332;2024-02-14T04:41:46;8.13;;;5.18;;
25553;SDS011;13446;50.926;5.332;2024-02-14T04:44:15;7.82;;;5.05;;
25553;SDS011;13446;50.926;5.332;2024-02-14T04:46:40;12.95;;;5.45;;
25553;SDS011;13446;50.926;5.332;2024-02-14T04:49:08;13.23;;;5.40;;
25553;SDS011;13446;50.926;5.332;2024-02-14T04:51:34;9.13;;;5.30;;
25553;SDS011;13446;50.926;5.332;2024-02-14T04:54:00;8.82;;;5.35;;
25553;SDS011;13446;50.926;5.332;2024-02-14T04:56:26;9.57;;;5.18;;
25553;SDS011;13446;50.926;5.332;2024-02-14T04:58:53;9.10;;;4.95;;
25553;SDS011;13446;50.926;5.332;2024-02-14T05:01:22;14.50;;;5.40;;
25553;SDS011;13446;50.926;5.332;2024-02-14T05:03:49;9.05;;;4.95;;
25553;SDS011;13446;50.926;5.332;2024-02-14T05:06:15;9.13;;;4.78;;
25553;SDS011;13446;50.926;5.332;2024-02-14T05:08:41;7.55;;;5.30;;
25553;SDS011;13446;50.926;5.332;2024-02-14T05:11:06;7.53;;;5.10;;
25553;SDS011;13446;50.926;5.332;2024-02-14T05:13:32;9.73;;;5.20;;
25553;SDS011;13446;50.926;5.332;2024-02-14T05:16:01;7.25;;;5.38;;
25553;SDS011;13446;50.926;5.332;2024-02-14T05:18:28;11.13;;;4.87;;
25553;SDS011;13446;50.926;5.332;2024-02-14T05:20:53;8.73;;;5.45;;
25553;SDS011;13446;50.926;5.332;2024-02-14T05:23:19;13.02;;;5.35;;
25553;SDS011;13446;50.926;5.332;2024-02-14T05:25:45;10.18;;;5.25;;
25553;SDS011;13446;50.926;5.332;2024-02-14T05:28:10;9.13;;;5.28;;
25553;SDS011;13446;50.926;5.332;2024-02-14T05:30:38;9.13;;;6.03;;
25553;SDS011;13446;50.926;5.332;2024-02-14T05:33:05;7.90;;;5.32;;
25553;SDS011;13446;50.926;5.332;2024-02-14T05:35:31;10.55;;;5.97;;
25553;SDS011;13446;50.926;5.332;2024-02-14T05:37:58;11.27;;;6.30;;
25553;SDS011;13446;50.926;5.332;2024-02-14T05:40:24;8.70;;;6.78;;
25553;SDS011;13446;50.926;5.332;2024-02-14T05:42:51;12.68;;;6.60;;
25553;SDS011;13446;50.926;5.332;2024-02-14T05:45:17;9.50;;;6.65;;
25553;SDS011;13446;50.926;5.332;2024-02-14T05:47:42;9.40;;;6.57;;
25553;SDS011;13446;50.926;5.332;2024-02-14T05:50:08;12.40;;;7.22;;
25553;SDS011;13446;50.926;5.332;2024-02-14T05:52:39;8.05;;;5.88;;
25553;SDS011;13446;50.926;5.332;2024-02-14T05:55:05;13.20;;;7.45;;
25553;SDS011;13446;50.926;5.332;2024-02-14T05:57:30;12.63;;;6.65;;
25553;SDS011;13446;50.926;5.332;2024-02-14T05:59:57;14.80;;;6.88;;
25553;SDS011;13446;50.926;5.332;2024-02-14T06:02:23;14.98;;;6.80;;
25553;SDS011;13446;50.926;5.332;2024-02-14T06:04:49;10.23;;;6.70;;
25553;SDS011;13446;50.926;5.332;2024-02-14T06:07:17;12.55;;;7.32;;
25553;SDS011;13446;50.926;5.332;2024-02-14T06:09:42;13.70;;;7.28;;
25553;SDS011;13446;50.926;5.332;2024-02-14T06:12:08;9.93;;;7.00;;
25553;SDS011;13446;50.926;5.332;2024-02-14T06:14:34;14.90;;;7.05;;
25553;SDS011;13446;50.926;5.332;2024-02-14T06:17:01;12.77;;;6.63;;
25553;SDS011;13446;50.926;5.332;2024-02-14T06:19:27;11.80;;;6.85;;
25553;SDS011;13446;50.926;5.332;2024-02-14T06:21:54;11.60;;;6.60;;
25553;SDS011;13446;50.926;5.332;2024-02-14T06:24:20;11.65;;;6.30;;
25553;SDS011;13446;50.926;5.332;2024-02-14T06:26:46;10.15;;;6.40;;
25553;SDS011;13446;50.926;5.332;2024-02-14T06:29:11;9.77;;;6.00;;
25553;SDS011;13446;50.926;5.332;2024-02-14T06:31:37;11.73;;;6.07;;
25553;SDS011;13446;50.926;5.332;2024-02-14T06:34:03;11.25;;;5.90;;
25553;SDS011;13446;50.926;5.332;2024-02-14T06:36:30;11.25;;;6.10;;
25553;SDS011;13446;50.926;5.332;2024-02-14T06:38:55;8.90;;;5.13;;
25553;SDS011;13446;50.926;5.332;2024-02-14T06:41:21;14.65;;;5.95;;
25553;SDS011;13446;50.926;5.332;2024-02-14T06:43:48;9.02;;;5.60;;
25553;SDS011;13446;50.926;5.332;2024-02-14T06:46:15;11.88;;;5.60;;
25553;SDS011;13446;50.926;5.332;2024-02-14T06:48:41;7.72;;;5.63;;
25553;SDS011;13446;50.926;5.332;2024-02-14T06:51:07;11.68;;;5.80;;
25553;SDS011;13446;50.926;5.332;2024-02-14T06:53:33;13.75;;;5.47;;
25553;SDS011;13446;50.926;5.332;2024-02-14T06:55:59;12.05;;;5.43;;
25553;SDS011;13446;50.926;5.332;2024-02-14T06:58:25;7.03;;;4.90;;
25553;SDS011;13446;50.926;5.332;2024-02-14T07:00:50;9.40;;;4.95;;
25553;SDS011;13446;50.926;5.332;2024-02-14T07:03:17;8.88;;;5.05;;
25553;SDS011;13446;50.926;5.332;2024-02-14T07:05:43;11.52;;;5.10;;
25553;SDS011;13446;50.926;5.332;2024-02-14T07:08:08;7.20;;;4.60;;
25553;SDS011;13446;50.926;5.332;2024-02-14T07:10:34;9.05;;;5.10;;
25553;SDS011;13446;50.926;5.332;2024-02-14T07:13:00;10.80;;;4.88;;
25553;SDS011;13446;50.926;5.332;2024-02-14T07:15:25;7.85;;;4.22;;
25553;SDS011;13446;50.926;5.332;2024-02-14T07:18:08;8.55;;;4.30;;
25553;SDS011;13446;50.926;5.332;2024-02-14T07:20:35;8.13;;;4.20;;
25553;SDS011;13446;50.926;5.332;2024-02-14T07:33:48;8.98;;;3.60;;
25553;SDS011;13446;50.926;5.332;2024-02-14T07:36:18;8.80;;;4.07;;
25553;SDS011;13446;50.926;5.332;2024-02-14T07:38:44;6.72;;;4.35;;
25553;SDS011;13446;50.926;5.332;2024-02-14T07:41:10;5.80;;;4.15;;
25553;SDS011;13446;50.926;5.332;2024-02-14T07:43:35;11.20;;;4.47;;
25553;SDS011;13446;50.926;5.332;2024-02-14T07:46:01;11.98;;;3.50;;
25553;SDS011;13446;50.926;5.332;2024-02-14T07:48:33;8.13;;;3.75;;
25553;SDS011;13446;50.926;5.332;2024-02-14T08:11:40;6.95;;;3.75;;
25553;SDS011;13446;50.926;5.332;2024-02-14T08:14:07;4.47;;;3.03;;
25553;SDS011;13446;50.926;5.332;2024-02-14T08:16:33;7.45;;;3.55;;
25553;SDS011;13446;50.926;5.332;2024-02-14T08:19:00;6.57;;;3.20;;
25553;SDS011;13446;50.926;5.332;2024-02-14T08:21:28;8.95;;;3.90;;
25553;SDS011;13446;50.926;5.332;2024-02-14T08:23:54;8.57;;;3.72;;
25553;SDS011;13446;50.926;5.332;2024-02-14T08:26:23;5.00;;;3.35;;
25553;SDS011;13446;50.926;5.332;2024-02-14T08:28:49;8.57;;;4.03;;
25553;SDS011;13446;50.926;5.332;2024-02-14T08:31:15;10.90;;;3.65;;
25553;SDS011;13446;50.926;5.332;2024-02-14T08:33:40;6.63;;;3.60;;
25553;SDS011;13446;50.926;5.332;2024-02-14T08:36:06;7.90;;;3.72;;
25553;SDS011;13446;50.926;5.332;2024-02-14T08:38:32;6.78;;;3.60;;
25553;SDS011;13446;50.926;5.332;2024-02-14T08:41:00;9.30;;;3.45;;
25553;SDS011;13446;50.926;5.332;2024-02-14T08:43:27;6.10;;;3.65;;
25553;SDS011;13446;50.926;5.332;2024-02-14T08:45:56;11.40;;;3.53;;
25553;SDS011;13446;50.926;5.332;2024-02-14T09:03:12;11.27;;;3.78;;
25553;SDS011;13446;50.926;5.332;2024-02-14T09:05:38;7.68;;;3.53;;
25553;SDS011;13446;50.926;5.332;2024-02-14T09:08:04;5.05;;;2.63;;
25553;SDS011;13446;50.926;5.332;2024-02-14T09:13:22;5.43;;;3.03;;
25553;SDS011;13446;50.926;5.332;2024-02-14T09:16:12;7.95;;;3.38;;
25553;SDS011;13446;50.926;5.332;2024-02-14T09:18:40;9.70;;;3.40;;
25553;SDS011;13446;50.926;5.332;2024-02-14T09:21:06;5.60;;;3.08;;
25553;SDS011;13446;50.926;5.332;2024-02-14T09:23:32;6.00;;;3.40;;
25553;SDS011;13446;50.926;5.332;2024-02-14T09:26:06;7.57;;;3.00;;
25553;SDS011;13446;50.926;5.332;2024-02-14T09:28:32;7.00;;;3.40;;
25553;SDS011;13446;50.926;5.332;2024-02-14T09:31:00;7.28;;;3.55;;
25553;SDS011;13446;50.926;5.332;2024-02-14T09:33:26;7.38;;;3.35;;
25553;SDS011;13446;50.926;5.332;2024-02-14T09:35:52;6.13;;;3.10;;
25553;SDS011;13446;50.926;5.332;2024-02-14T09:38:19;4.38;;;3.20;;
25553;SDS011;13446;50.926;5.332;2024-02-14T09:40:45;6.70;;;3.00;;
25553;SDS011;13446;50.926;5.332;2024-02-14T09:43:52;3.17;;;2.63;;
25553;SDS011;13446;50.926;5.332;2024-02-14T09:46:17;5.30;;;2.85;;
25553;SDS011;13446;50.926;5.332;2024-02-14T09:48:44;4.85;;;2.70;;
25553;SDS011;13446;50.926;5.332;2024-02-14T09:51:11;3.97;;;2.60;;
25553;SDS011;13446;50.926;5.332;2024-02-14T09:53:39;4.25;;;2.58;;
25553;SDS011;13446;50.926;5.332;2024-02-14T09:56:05;6.57;;;2.42;;
25553;SDS011;13446;50.926;5.332;2024-02-14T09:58:33;5.15;;;2.67;;
25553;SDS011;13446;50.926;5.332;2024-02-14T10:01:00;4.88;;;2.47;;
25553;SDS011;13446;50.926;5.332;2024-02-14T10:03:25;5.32;;;2.40;;
25553;SDS011;13446;50.926;5.332;2024-02-14T10:05:51;5.93;;;2.03;;
25553;SDS011;13446;50.926;5.332;2024-02-14T10:08:23;3.72;;;2.20;;
25553;SDS011;13446;50.926;5.332;2024-02-14T10:11:03;2.05;;;1.58;;
25553;SDS011;13446;50.926;5.332;2024-02-14T10:13:32;2.45;;;1.90;;
25553;SDS011;13446;50.926;5.332;2024-02-14T10:16:11;4.78;;;2.00;;
25553;SDS011;13446;50.926;5.332;2024-02-14T10:21:57;3.97;;;2.20;;
25553;SDS011;13446;50.926;5.332;2024-02-14T10:30:22;2.88;;;2.00;;
25553;SDS011;13446;50.926;5.332;2024-02-14T10:32:51;2.92;;;1.70;;
25553;SDS011;13446;50.926;5.332;2024-02-14T10:35:17;5.22;;;1.92;;
25553;SDS011;13446;50.926;5.332;2024-02-14T10:37:46;3.40;;;1.80;;
25553;SDS011;13446;50.926;5.332;2024-02-14T10:40:13;2.45;;;2.00;;
25553;SDS011;13446;50.926;5.332;2024-02-14T10:42:39;3.88;;;1.83;;
25553;SDS011;13446;50.926;5.332;2024-02-14T10:45:05;2.20;;;1.80;;
25553;SDS011;13446;50.926;5.332;2024-02-14T10:47:35;2.47;;;1.70;;
25553;SDS011;13446;50.926;5.332;2024-02-14T10:50:05;2.63;;;1.55;;
25553;SDS011;13446;50.926;5.332;2024-02-14T10:52:33;3.20;;;1.58;;
25553;SDS011;13446;50.926;5.332;2024-02-14T10:55:06;2.88;;;1.48;;
25553;SDS011;13446;50.926;5.332;2024-02-14T10:57:38;3.05;;;1.50;;
25553;SDS011;13446;50.926;5.332;2024-02-14T11:00:06;3.80;;;1.65;;
25553;SDS011;13446;50.926;5.332;2024-02-14T11:02:38;2.88;;;1.50;;
25553;SDS011;13446;50.926;5.332;2024-02-14T11:05:04;2.78;;;1.80;;
25553;SDS011;13446;50.926;5.332;2024-02-14T11:07:32;4.13;;;2.00;;
25553;SDS011;13446;50.926;5.332;2024-02-14T11:10:04;3.65;;;1.65;;
25553;SDS011;13446;50.926;5.332;2024-02-14T11:12:36;2.80;;;2.00;;
25553;SDS011;13446;50.926;5.332;2024-02-14T11:15:17;2.92;;;1.80;;
25553;SDS011;13446;50.926;5.332;2024-02-14T11:20:17;2.25;;;1.75;;
25553;SDS011;13446;50.926;5.332;2024-02-14T11:22:57;6.43;;;1.80;;
25553;SDS011;13446;50.926;5.332;2024-02-14T11:25:29;4.32;;;1.95;;
25553;SDS011;13446;50.926;5.332;2024-02-14T11:28:14;3.08;;;1.92;;
25553;SDS011;13446;50.926;5.332;2024-02-14T11:30:41;2.85;;;1.75;;
25553;SDS011;13446;50.926;5.332;2024-02-14T11:33:10;4.95;;;2.20;;
25553;SDS011;13446;50.926;5.332;2024-02-14T11:35:40;3.00;;;1.98;;
25553;SDS011;13446;50.926;5.332;2024-02-14T11:38:06;4.50;;;2.03;;
25553;SDS011;13446;50.926;5.332;2024-02-14T11:40:33;2.88;;;2.30;;
25553;SDS011;13446;50.926;5.332;2024-02-14T11:42:59;1.92;;;1.73;;
25553;SDS011;13446;50.926;5.332;2024-02-14T11:45:25;3.25;;;1.60;;
25553;SDS011;13446;50.926;5.332;2024-02-14T11:47:55;1.67;;;1.58;;
25553;SDS011;13446;50.926;5.332;2024-02-14T11:50:20;2.33;;;2.08;;
25553;SDS011;13446;50.926;5.332;2024-02-14T11:52:46;2.88;;;2.15;;
25553;SDS011;13446;50.926;5.332;2024-02-14T11:55:12;2.90;;;1.60;;
25553;SDS011;13446;50.926;5.332;2024-02-14T11:57:42;1.73;;;1.45;;
25553;SDS011;13446;50.926;5.332;2024-02-14T12:00:08;2.38;;;1.45;;
25553;SDS011;13446;50.926;5.332;2024-02-14T12:02:34;4.25;;;1.40;;
25553;SDS011;13446;50.926;5.332;2024-02-14T12:05:16;2.25;;;1.33;;
25553;SDS011;13446;50.926;5.332;2024-02-14T12:07:43;2.13;;;1.17;;
25553;SDS011;13446;50.926;5.332;2024-02-14T12:10:15;1.55;;;1.27;;
25553;SDS011;13446;50.926;5.332;2024-02-14T12:12:49;1.50;;;1.35;;
25553;SDS011;13446;50.926;5.332;2024-02-14T12:15:44;4.00;;;1.40;;
25553;SDS011;13446;50.926;5.332;2024-02-14T12:18:11;1.40;;;1.10;;
25553;SDS011;13446;50.926;5.332;2024-02-14T12:20:37;1.92;;;1.20;;
25553;SDS011;13446;50.926;5.332;2024-02-14T12:23:04;1.25;;;0.82;;
25553;SDS011;13446;50.926;5.332;2024-02-14T12:25:33;2.78;;;1.15;;
25553;SDS011;13446;50.926;5.332;2024-02-14T12:27:59;1.70;;;0.90;;
25553;SDS011;13446;50.926;5.332;2024-02-14T12:30:35;0.82;;;0.70;;
25553;SDS011;13446;50.926;5.332;2024-02-14T12:33:12;1.23;;;1.10;;
25553;SDS011;13446;50.926;5.332;2024-02-14T12:35:42;3.63;;;1.13;;
25553;SDS011;13446;50.926;5.332;2024-02-14T12:38:12;1.33;;;1.08;;
25553;SDS011;13446;50.926;5.332;2024-02-14T12:40:39;2.03;;;1.17;;
25553;SDS011;13446;50.926;5.332;2024-02-14T12:43:09;1.33;;;1.00;;
25553;SDS011;13446;50.926;5.332;2024-02-14T12:45:36;2.90;;;1.00;;
25553;SDS011;13446;50.926;5.332;2024-02-14T12:48:03;1.40;;;1.02;;
25553;SDS011;13446;50.926;5.332;2024-02-14T12:50:30;2.97;;;1.10;;
25553;SDS011;13446;50.926;5.332;2024-02-14T12:52:57;2.03;;;1.10;;
25553;SDS011;13446;50.926;5.332;2024-02-14T12:55:35;2.65;;;1.00;;
25553;SDS011;13446;50.926;5.332;2024-02-14T12:58:00;2.65;;;1.00;;
25553;SDS011;13446;50.926;5.332;2024-02-14T13:00:26;1.98;;;1.10;;
25553;SDS011;13446;50.926;5.332;2024-02-14T13:02:55;3.70;;;1.40;;
25553;SDS011;13446;50.926;5.332;2024-02-14T13:05:21;3.38;;;1.30;;
25553;SDS011;13446;50.926;5.332;2024-02-14T13:07:48;4.50;;;1.67;;
25553;SDS011;13446;50.926;5.332;2024-02-14T13:10:14;2.40;;;1.50;;
25553;SDS011;13446;50.926;5.332;2024-02-14T13:12:41;4.68;;;1.80;;
25553;SDS011;13446;50.926;5.332;2024-02-14T13:15:08;4.78;;;1.90;;
25553;SDS011;13446;50.926;5.332;2024-02-14T13:17:34;2.88;;;1.70;;
25553;SDS011;13446;50.926;5.332;2024-02-14T13:20:12;3.20;;;1.60;;
25553;SDS011;13446;50.926;5.332;2024-02-14T13:25:23;2.88;;;1.77;;
25553;SDS011;13446;50.926;5.332;2024-02-14T13:27:49;4.93;;;2.40;;
25553;SDS011;13446;50.926;5.332;2024-02-14T13:33:05;3.05;;;2.40;;
25553;SDS011;13446;50.926;5.332;2024-02-14T13:35:31;4.03;;;2.00;;
25553;SDS011;13446;50.926;5.332;2024-02-14T13:38:02;5.07;;;2.47;;
25553;SDS011;13446;50.926;5.332;2024-02-14T13:40:29;2.50;;;2.10;;
25553;SDS011;13446;50.926;5.332;2024-02-14T13:43:12;5.72;;;2.50;;
25553;SDS011;13446;50.926;5.332;2024-02-14T13:45:53;6.13;;;3.17;;
25553;SDS011;13446;50.926;5.332;2024-02-14T13:48:19;2.83;;;2.33;;
25553;SDS011;13446;50.926;5.332;2024-02-14T13:50:46;2.50;;;2.30;;
25553;SDS011;13446;50.926;5.332;2024-02-14T13:53:15;2.83;;;2.40;;
25553;SDS011;13446;50.926;5.332;2024-02-14T13:55:42;4.43;;;2.47;;
25553;SDS011;13446;50.926;5.332;2024-02-14T13:58:08;3.67;;;2.47;;
25553;SDS011;13446;50.926;5.332;2024-02-14T14:00:39;4.68;;;2.50;;
25553;SDS011;13446;50.926;5.332;2024-02-14T14:03:06;5.47;;;2.30;;
25553;SDS011;13446;50.926;5.332;2024-02-14T14:05:32;4.60;;;2.40;;
25553;SDS011;13446;50.926;5.332;2024-02-14T14:07:57;2.85;;;2.50;;
25553;SDS011;13446;50.926;5.332;2024-02-14T14:10:24;3.28;;;2.30;;
25553;SDS011;13446;50.926;5.332;2024-02-14T14:12:51;9.68;;;2.72;;
25553;SDS011;13446;50.926;5.332;2024-02-14T14:15:16;3.47;;;2.55;;
25553;SDS011;13446;50.926;5.332;2024-02-14T14:17:42;4.97;;;2.28;;
25553;SDS011;13446;50.926;5.332;2024-02-14T14:20:08;3.05;;;2.50;;
25553;SDS011;13446;50.926;5.332;2024-02-14T14:22:34;3.65;;;2.35;;
25553;SDS011;13446;50.926;5.332;2024-02-14T14:25:06;3.90;;;2.60;;
25553;SDS011;13446;50.926;5.332;2024-02-14T14:27:33;3.15;;;2.40;;
25553;SDS011;13446;50.926;5.332;2024-02-14T14:29:59;6.13;;;2.70;;
25553;SDS011;13446;50.926;5.332;2024-02-14T14:32:25;3.95;;;3.03;;
25553;SDS011;13446;50.926;5.332;2024-02-14T14:34:50;4.13;;;2.88;;
25553;SDS011;13446;50.926;5.332;2024-02-14T14:37:16;5.53;;;3.10;;
25553;SDS011;13446;50.926;5.332;2024-02-14T14:39:42;3.53;;;2.88;;
25553;SDS011;13446;50.926;5.332;2024-02-14T14:42:09;4.70;;;3.40;;
25553;SDS011;13446;50.926;5.332;2024-02-14T14:44:35;5.00;;;3.03;;
25553;SDS011;13446;50.926;5.332;2024-02-14T14:47:01;4.25;;;3.08;;
25553;SDS011;13446;50.926;5.332;2024-02-14T14:49:27;4.63;;;3.00;;
25553;SDS011;13446;50.926;5.332;2024-02-14T14:51:53;7.38;;;3.50;;
25553;SDS011;13446;50.926;5.332;2024-02-14T14:54:19;3.80;;;3.00;;
25553;SDS011;13446;50.926;5.332;2024-02-14T14:56:45;3.50;;;2.80;;
25553;SDS011;13446;50.926;5.332;2024-02-14T14:59:11;4.25;;;3.50;;
25553;SDS011;13446;50.926;5.332;2024-02-14T15:01:37;6.97;;;3.70;;
25553;SDS011;13446;50.926;5.332;2024-02-14T15:04:03;8.10;;;3.38;;
25553;SDS011;13446;50.926;5.332;2024-02-14T15:06:30;5.13;;;3.67;;
25553;SDS011;13446;50.926;5.332;2024-02-14T15:08:58;5.53;;;4.00;;
25553;SDS011;13446;50.926;5.332;2024-02-14T15:11:24;3.67;;;3.30;;
25553;SDS011;13446;50.926;5.332;2024-02-14T15:13:49;6.28;;;3.28;;
25553;SDS011;13446;50.926;5.332;2024-02-14T15:16:15;4.00;;;3.42;;
25553;SDS011;13446;50.926;5.332;2024-02-14T15:18:41;6.03;;;3.55;;
25553;SDS011;13446;50.926;5.332;2024-02-14T15:21:08;5.47;;;3.10;;
25553;SDS011;13446;50.926;5.332;2024-02-14T15:23:34;5.03;;;3.50;;
25553;SDS011;13446;50.926;5.332;2024-02-14T15:26:00;5.10;;;3.28;;
25553;SDS011;13446;50.926;5.332;2024-02-14T15:28:29;4.35;;;2.97;;
25553;SDS011;13446;50.926;5.332;2024-02-14T15:30:58;4.00;;;2.97;;
25553;SDS011;13446;50.926;5.332;2024-02-14T15:33:42;4.68;;;2.88;;
25553;SDS011;13446;50.926;5.332;2024-02-14T15:36:08;4.43;;;3.42;;
25553;SDS011;13446;50.926;5.332;2024-02-14T15:38:35;3.75;;;3.00;;
25553;SDS011;13446;50.926;5.332;2024-02-14T15:41:01;3.42;;;3.08;;
25553;SDS011;13446;50.926;5.332;2024-02-14T15:43:29;3.47;;;2.83;;
25553;SDS011;13446;50.926;5.332;2024-02-14T15:45:55;4.13;;;2.75;;
25553;SDS011;13446;50.926;5.332;2024-02-14T15:48:22;4.53;;;2.83;;
25553;SDS011;13446;50.926;5.332;2024-02-14T15:50:49;3.50;;;2.90;;
25553;SDS011;13446;50.926;5.332;2024-02-14T15:53:15;4.10;;;3.15;;
25553;SDS011;13446;50.926;5.332;2024-02-14T15:55:41;5.00;;;2.90;;